logo
Search for airport 
image banner adimage banner adimage banner ad
image banner ad

LI-TE07 - Air Country

Located in S.Omero, Italy

ICAO - , IATA -

Data provided by Airmate  

General information

Coordinates: N42°48'23" E13°47'6"
Elevation is 456 feet MSL.
 
View others Airports in Abruzzi

Operational data

Special qualification required
Current time UTC:
Current local time:
Weather at : LIBP - Pescara ( 53 km )
METAR: LIBP 241950Z AUTO 12003KT 9999 OVC092/// 20/16 Q1018
TAF: TAF LIBP 241700Z 2418/2518 VRB05KT 9999 FEW040 BECMG 2508/2510 07010KT TEMPO 2511/2518 TSRA
View NOTAMs / SUP AIP / TFR affecting this airport [VIEW]
Communications frequencies: [VIEW]

Runways:

RWY identifierQFULength (ft)Width (ft)SurfaceLDA (ft)
1188565GRASS
2988565GRASS

Airport contact information

Address: S.Omero Italy

Satellite view of LI-TE07